• Join FlightAware (Why Join?)
  • Login
  • US Flag 
09:37PM EST


 

Airport Tracker/Info


-or-


 

Live Flight TrackerFlight Track Log ✈ ASQ5506 ✈ 07-Apr-2013 ✈ KATL - KMGM

Flight Track Log - Related Links

Times and Time Zones

All times are in EDT time to prevent confusion due to time zone crossing. See the ASQ5506 flight status page for this flight to view local times or setup timezone preferences in your user account.

Time Position Orientation Groundspeed Altitude Reporting Facility
EDT Latitude Longitude Course Direction KTS MPH feet Rate Location/Type
05:26PM 33.6500 -84.4000 73° East 177 204 1,800  Level Atlanta TRACON
05:27PM 33.6667 -84.3333 73° East 256 295 3,500 2,160 Climbing Atlanta TRACON
05:28PM 33.7333 -84.2833 32° Northeast 286 329 6,200 2,700 Climbing Atlanta TRACON
05:29PM 33.8000 -84.3000 348° North 294 338 8,900 1,980 Climbing Atlanta TRACON
05:31PM 33.8100 -84.5164 273° West 295 339 12,800 1,560 Climbing Atlanta Center
05:32PM 33.7825 -84.6311 254° West 325 374 14,200 1,380 Climbing Atlanta Center
05:33PM 33.7278 -84.7133 231° Southwest 330 380 15,600 1,440 Climbing Atlanta Center
05:34PM 33.6644 -84.8075 231° Southwest 348 400 17,100 1,200 Climbing Atlanta Center
05:35PM 33.6094 -84.9267 241° Southwest 366 421 18,000 420 Climbing Atlanta Center
05:36PM 33.5606 -85.0358 242° Southwest 383 441 18,000  Level Atlanta Center
05:37PM 33.5075 -85.1500 241° Southwest 383 441 18,000  Level Atlanta Center
05:38PM 33.4708 -85.2642 249° West 383 441 18,000  Level Atlanta Center
05:39PM 33.4447 -85.3856 256° West 377 434 18,000  Level Atlanta Center
05:40PM 33.4017 -85.4794 241° Southwest 371 427 18,000  Level Atlanta Center
05:41PM 33.3092 -85.5525 213° Southwest 350 403 18,000  Level Atlanta Center
05:42PM 33.2267 -85.6231 216° Southwest 355 409 18,000  Level Atlanta Center
05:43PM 33.1425 -85.6911 214° Southwest 367 422 18,000 -720 Level Atlanta Center
05:44PM 33.0578 -85.7639 216° Southwest 373 429 16,600 -1,560 Descending Atlanta Center
05:45PM 32.9756 -85.8342 216° Southwest 373 429 15,000 -1,620 Descending Atlanta Center
05:46PM 32.8953 -85.9017 215° Southwest 368 423 13,400 -1,800 Descending Atlanta Center
05:47PM 32.8211 -85.9669 216° Southwest 354 407 11,500 -1,740 Descending Atlanta Center
05:48PM 32.7556 -86.0197 214° Southwest 327 376 10,000 -1,800 Descending Atlanta Center
05:50PM 32.6331 -86.1033 210° Southwest 266 306 6,100 -1,860 Descending Atlanta Center
05:51PM 32.5553 -86.1433 203° Southwest 254 292 4,200 -1,380 Descending Atlanta Center
05:52PM 32.4983 -86.1717 203° Southwest 241 277 3,200 -600 Descending Atlanta Center
05:53PM 32.4458 -86.2000 204° Southwest 229 264 3,000 -240 Descending Atlanta Center
05:55PM 32.3819 -86.3095 212° Southwest  Level FlightAware Approximate
06:02PM 32.3000 -86.3833 220° Southwest  Level FlightAware Approximate
06:03PM 32.3006 -86.3940 220° Southwest  Level Estimated
06:04PM 32.3006 -86.3940 220° Southwest  Level Estimated
06:05PM 32.3006 -86.3940 220° Southwest  Level Estimated